Time;durP1;ratioP1;P1;durP2;ratioP2;P2;SDS_P1;SDS_P2;PMS_P1;PMS_P2;Temp;Humidity;BMP_temperature;BMP_pressure;BME280_temperature;BME280_humidity;BME280_pressure;Samples;Min_cycle;Max_cycle;Signal;HPM_P1;HPM_P2
2022/11/28 00:01:40;;;;;;;17.13;8.90;;;;;;;;;;5035176;28;20406;-76
2022/11/28 00:04:06;;;;;;;17.90;8.52;;;;;;;;;;5034886;28;20382;-76
2022/11/28 00:06:35;;;;;;;16.67;8.32;;;;;;;;;;5034881;28;20022;-76
2022/11/28 00:09:01;;;;;;;21.48;9.13;;;;;;;;;;5035014;28;20021;-76
2022/11/28 00:11:27;;;;;;;19.65;8.82;;;;;;;;;;5034864;28;20058;-76
2022/11/28 00:13:54;;;;;;;16.20;9.07;;;;;;;;;;5000941;28;20033;-76
2022/11/28 00:16:21;;;;;;;19.52;9.52;;;;;;;;;;5017025;28;20040;-76
2022/11/28 00:18:47;;;;;;;17.65;8.98;;;;;;;;;;5016182;28;20109;-76
2022/11/28 00:21:15;;;;;;;14.63;8.23;;;;;;;;;;5014769;28;20484;-76
2022/11/28 00:23:41;;;;;;;15.18;8.35;;;;;;;;;;5014931;28;20029;-76
2022/11/28 00:26:15;;;;;;;14.88;7.95;;;;;;;;;;5014976;28;20022;-76
2022/11/28 00:28:42;;;;;;;13.93;7.72;;;;;;;;;;5030059;28;20411;-76
2022/11/28 00:31:11;;;;;;;13.43;7.75;;;;;;;;;;5030249;28;20034;-76
2022/11/28 00:33:37;;;;;;;12.50;7.15;;;;;;;;;;5024572;28;20026;-76
2022/11/28 00:36:04;;;;;;;11.02;6.90;;;;;;;;;;5034358;28;20065;-76
2022/11/28 00:38:31;;;;;;;16.83;7.07;;;;;;;;;;5034370;28;20021;-76
2022/11/28 00:41:00;;;;;;;11.63;6.43;;;;;;;;;;5034581;28;20071;-76
2022/11/28 00:43:26;;;;;;;14.50;6.82;;;;;;;;;;5016486;28;20416;-76
2022/11/28 00:45:53;;;;;;;10.82;7.00;;;;;;;;;;5033500;28;20025;-76
2022/11/28 00:48:19;;;;;;;12.18;6.65;;;;;;;;;;5034377;28;20060;-76
2022/11/28 00:50:45;;;;;;;14.80;6.22;;;;;;;;;;5034273;28;20491;-76
2022/11/28 00:53:11;;;;;;;19.42;7.72;;;;;;;;;;5034266;28;20468;-76
2022/11/28 00:55:40;;;;;;;13.65;7.05;;;;;;;;;;5034001;28;20691;-77
2022/11/28 00:58:07;;;;;;;13.45;7.57;;;;;;;;;;5034036;28;20383;-76
2022/11/28 01:00:33;;;;;;;19.95;8.02;;;;;;;;;;5016173;28;20038;-76
2022/11/28 01:02:59;;;;;;;14.77;7.38;;;;;;;;;;5033868;28;20026;-76
2022/11/28 01:05:25;;;;;;;16.48;8.00;;;;;;;;;;5033741;28;20045;-76
2022/11/28 01:07:52;;;;;;;16.60;8.05;;;;;;;;;;5033833;28;20021;-77
2022/11/28 01:10:18;;;;;;;15.27;9.45;;;;;;;;;;5033567;28;20045;-76
2022/11/28 01:12:44;;;;;;;14.98;8.45;;;;;;;;;;5016175;28;20026;-77
2022/11/28 01:15:11;;;;;;;18.67;8.10;;;;;;;;;;5016170;28;20029;-76
2022/11/28 01:17:37;;;;;;;23.98;8.32;;;;;;;;;;5022181;28;20100;-76
2022/11/28 01:20:07;;;;;;;16.70;7.18;;;;;;;;;;5013882;28;20424;-76
2022/11/28 01:22:33;;;;;;;18.65;8.65;;;;;;;;;;5021525;28;20476;-76
2022/11/28 01:24:59;;;;;;;15.20;8.07;;;;;;;;;;5033334;28;20071;-76
2022/11/28 01:27:25;;;;;;;14.77;8.05;;;;;;;;;;5028126;28;20029;-77
2022/11/28 01:29:51;;;;;;;20.10;8.20;;;;;;;;;;5033274;28;20021;-76
2022/11/28 01:32:17;;;;;;;16.40;8.85;;;;;;;;;;5032924;28;20041;-76
2022/11/28 01:34:43;;;;;;;18.38;9.20;;;;;;;;;;5033273;28;20041;-76
2022/11/28 01:37:09;;;;;;;18.00;9.13;;;;;;;;;;5033234;28;20029;-76
2022/11/28 01:39:37;;;;;;;16.17;8.60;;;;;;;;;;5033080;28;20037;-76
2022/11/28 01:42:03;;;;;;;15.50;9.18;;;;;;;;;;5032993;28;20391;-76
2022/11/28 01:44:29;;;;;;;15.85;9.50;;;;;;;;;;5032939;28;20033;-77
2022/11/28 01:46:55;;;;;;;16.55;9.35;;;;;;;;;;5017417;28;20025;-76
2022/11/28 01:49:24;;;;;;;17.30;8.82;;;;;;;;;;5003162;28;20067;-76
2022/11/28 01:51:55;;;;;;;23.58;9.30;;;;;;;;;;5032729;28;20086;-76
2022/11/28 01:54:23;;;;;;;20.00;9.20;;;;;;;;;;5015272;28;20017;-77
2022/11/28 01:56:56;;;;;;;18.27;9.15;;;;;;;;;;5031837;28;20025;-77
2022/11/28 01:59:21;;;;;;;;;;;;;;;;;;5015597;28;20044;-76
2022/11/28 02:01:47;;;;;;;16.73;8.85;;;;;;;;;;5032653;28;20343;-76
2022/11/28 02:04:14;;;;;;;18.38;9.40;;;;;;;;;;5014670;28;20021;-76
2022/11/28 02:06:41;;;;;;;18.23;9.02;;;;;;;;;;5032215;28;20461;-77
2022/11/28 02:09:14;;;;;;;14.73;8.48;;;;;;;;;;5014365;28;20045;-76
2022/11/28 02:11:49;;;;;;;18.10;8.30;;;;;;;;;;5032433;28;20049;-76
2022/11/28 02:14:15;;;;;;;16.33;8.30;;;;;;;;;;5032357;28;20030;-76
2022/11/28 02:16:59;;;;;;;16.88;7.35;;;;;;;;;;5032577;28;20357;-76
2022/11/28 02:19:44;;;;;;;12.90;6.95;;;;;;;;;;5014695;28;20383;-76
2022/11/28 02:22:19;;;;;;;13.40;7.20;;;;;;;;;;5032342;28;20427;-76
2022/11/28 02:24:51;;;;;;;14.77;7.63;;;;;;;;;;5032481;28;20026;-76
2022/11/28 02:27:25;;;;;;;15.75;7.50;;;;;;;;;;5032100;28;20021;-76
2022/11/28 02:30:06;;;;;;;13.85;6.60;;;;;;;;;;5032549;28;20037;-76
2022/11/28 02:32:48;;;;;;;16.20;7.28;;;;;;;;;;5032297;28;20026;-76
2022/11/28 02:35:14;;;;;;;;;;;;;;;;;;5032868;28;20116;-76
2022/11/28 02:37:40;;;;;;;10.43;6.03;;;;;;;;;;5014456;28;20010;-76
2022/11/28 02:40:18;;;;;;;11.07;6.32;;;;;;;;;;5032179;28;20095;-76
2022/11/28 02:42:47;;;;;;;13.88;6.65;;;;;;;;;;5032574;28;20021;-76
2022/11/28 02:45:18;;;;;;;11.70;6.53;;;;;;;;;;5032161;28;20026;-76
2022/11/28 02:47:47;;;;;;;12.35;6.28;;;;;;;;;;5032230;28;20375;-76
2022/11/28 02:50:21;;;;;;;13.82;6.53;;;;;;;;;;5032167;28;20029;-76
2022/11/28 02:52:52;;;;;;;10.63;6.70;;;;;;;;;;5032346;28;20030;-76
2022/11/28 02:55:19;;;;;;;14.40;6.38;;;;;;;;;;5032317;28;20053;-76
2022/11/28 02:57:50;;;;;;;12.88;6.43;;;;;;;;;;5032007;28;20092;-76
2022/11/28 03:00:30;;;;;;;12.70;6.10;;;;;;;;;;5014673;28;20068;-76
2022/11/28 03:03:01;;;;;;;10.95;6.47;;;;;;;;;;5032022;28;20028;-76
2022/11/28 03:05:48;;;;;;;10.48;6.30;;;;;;;;;;5031769;28;20467;-77
2022/11/28 03:08:14;;;;;;;13.60;6.18;;;;;;;;;;5021959;28;20164;-76
2022/11/28 03:10:49;;;;;;;11.05;5.53;;;;;;;;;;5035613;28;20064;-76
2022/11/28 03:13:21;;;;;;;14.93;5.57;;;;;;;;;;5036023;28;20750;-76
2022/11/28 03:16:10;;;;;;;11.10;5.10;;;;;;;;;;5035619;28;20030;-76
2022/11/28 03:18:41;;;;;;;9.98;4.80;;;;;;;;;;5034652;28;20030;-76
2022/11/28 03:21:28;;;;;;;8.90;5.35;;;;;;;;;;5017512;28;20022;-76
2022/11/28 03:23:59;;;;;;;9.45;5.22;;;;;;;;;;5035476;28;20562;-76
2022/11/28 03:26:47;;;;;;;10.73;5.32;;;;;;;;;;5035656;28;20071;-76
2022/11/28 03:29:13;;;;;;;10.98;5.50;;;;;;;;;;5024549;28;20026;-76
2022/11/28 03:31:45;;;;;;;9.07;5.57;;;;;;;;;;5035251;28;20029;-76
2022/11/28 03:34:14;;;;;;;9.65;5.75;;;;;;;;;;5035561;28;20022;-76
2022/11/28 03:36:51;;;;;;;10.00;5.88;;;;;;;;;;5035528;28;20026;-76
2022/11/28 03:39:19;;;;;;;12.25;6.25;;;;;;;;;;5035546;28;20028;-76
2022/11/28 03:41:57;;;;;;;12.80;6.40;;;;;;;;;;5035878;28;20032;-80
2022/11/28 03:44:27;;;;;;;10.80;6.57;;;;;;;;;;5017932;28;20063;-80
2022/11/28 03:46:55;;;;;;;15.95;6.57;;;;;;;;;;5035794;28;20033;-80
2022/11/28 03:49:25;;;;;;;11.38;6.63;;;;;;;;;;5035600;28;20037;-80
2022/11/28 03:52:04;;;;;;;10.35;6.60;;;;;;;;;;5035811;28;20030;-80
2022/11/28 03:54:36;;;;;;;13.18;6.72;;;;;;;;;;5035728;28;20108;-81
2022/11/28 03:57:05;;;;;;;12.98;6.45;;;;;;;;;;5017937;28;20045;-80
2022/11/28 03:59:36;;;;;;;14.02;7.10;;;;;;;;;;5034727;28;20025;-76
2022/11/28 04:02:02;;;;;;;11.52;6.50;;;;;;;;;;5034524;28;20021;-77
2022/11/28 04:04:28;;;;;;;11.73;6.63;;;;;;;;;;5034324;28;20026;-77
2022/11/28 04:06:57;;;;;;;11.45;6.57;;;;;;;;;;5034273;28;20022;-76
2022/11/28 04:09:29;;;;;;;13.02;7.13;;;;;;;;;;5016494;28;20092;-76
2022/11/28 04:11:55;;;;;;;;;;;;;;;;;;5034389;28;20057;-76
2022/11/28 04:14:30;;;;;;;14.65;6.72;;;;;;;;;;5034514;28;20078;-77
2022/11/28 04:17:10;;;;;;;11.93;7.10;;;;;;;;;;5029309;28;20030;-76
2022/11/28 04:19:40;;;;;;;15.05;7.47;;;;;;;;;;5013827;28;20066;-76
2022/11/28 04:22:10;;;;;;;13.13;7.35;;;;;;;;;;4996637;28;20021;-77
2022/11/28 04:24:38;;;;;;;15.13;7.15;;;;;;;;;;5014312;28;20025;-76
2022/11/28 04:27:06;;;;;;;12.88;7.25;;;;;;;;;;5031564;28;20364;-76
2022/11/28 04:29:35;;;;;;;15.70;7.47;;;;;;;;;;5026881;28;20030;-76
2022/11/28 04:32:03;;;;;;;16.70;8.10;;;;;;;;;;5028260;28;20468;-77
2022/11/28 04:34:30;;;;;;;16.73;7.70;;;;;;;;;;5019811;28;20137;-76
2022/11/28 04:36:57;;;;;;;14.68;7.97;;;;;;;;;;5009641;28;20407;-76
2022/11/28 04:39:24;;;;;;;13.68;7.13;;;;;;;;;;5015983;28;20036;-76
2022/11/28 04:41:50;;;;;;;12.52;7.63;;;;;;;;;;5033714;28;20021;-78
2022/11/28 04:44:29;;;;;;;15.88;8.10;;;;;;;;;;5033996;28;20151;-78
2022/11/28 04:46:57;;;;;;;14.77;7.38;;;;;;;;;;5033422;28;20047;-78
2022/11/28 04:49:25;;;;;;;13.65;7.82;;;;;;;;;;5034387;28;20030;-78
2022/11/28 04:51:58;;;;;;;15.55;7.93;;;;;;;;;;5034001;28;20030;-78
2022/11/28 04:54:28;;;;;;;10.73;7.40;;;;;;;;;;5034065;28;20597;-78
2022/11/28 04:56:57;;;;;;;14.00;7.75;;;;;;;;;;5034325;28;20032;-78
2022/11/28 04:59:25;;;;;;;14.65;7.57;;;;;;;;;;5016217;28;20087;-78
2022/11/28 05:01:51;;;;;;;12.60;7.90;;;;;;;;;;5034367;28;20021;-78
2022/11/28 05:04:17;;;;;;;12.70;7.70;;;;;;;;;;5034206;28;20116;-78
2022/11/28 05:06:44;;;;;;;17.63;7.75;;;;;;;;;;5000209;28;20344;-76
2022/11/28 05:09:11;;;;;;;16.60;7.22;;;;;;;;;;5013879;28;20034;-76
2022/11/28 05:11:37;;;;;;;10.63;7.25;;;;;;;;;;5013895;28;20061;-76
2022/11/28 05:14:03;;;;;;;14.77;7.72;;;;;;;;;;5014075;28;20084;-76
2022/11/28 05:16:29;;;;;;;13.27;7.57;;;;;;;;;;4996976;28;20021;-76
2022/11/28 05:18:55;;;;;;;14.75;7.65;;;;;;;;;;5033676;28;20617;-76
2022/11/28 05:21:21;;;;;;;11.63;6.45;;;;;;;;;;5016083;28;20112;-76
2022/11/28 05:23:47;;;;;;;10.25;7.03;;;;;;;;;;5033585;28;20034;-76
2022/11/28 05:26:15;;;;;;;11.30;6.43;;;;;;;;;;5015440;28;20025;-76
2022/11/28 05:28:49;;;;;;;11.98;7.03;;;;;;;;;;5037385;28;20025;-76
2022/11/28 05:31:16;;;;;;;11.65;7.00;;;;;;;;;;5003889;28;20025;-76
2022/11/28 05:33:42;;;;;;;11.25;6.68;;;;;;;;;;5032861;28;20549;-77
2022/11/28 05:36:09;;;;;;;10.70;6.75;;;;;;;;;;5032971;28;20113;-76
2022/11/28 05:38:36;;;;;;;11.80;7.68;;;;;;;;;;5032778;28;20036;-76
2022/11/28 05:41:02;;;;;;;14.95;7.60;;;;;;;;;;5033015;28;20029;-76
2022/11/28 05:43:29;;;;;;;11.43;7.00;;;;;;;;;;5032684;28;20029;-76
2022/11/28 05:45:55;;;;;;;10.75;7.03;;;;;;;;;;5033024;28;20416;-76
2022/11/28 05:48:21;;;;;;;12.55;7.88;;;;;;;;;;5032359;28;20017;-76
2022/11/28 05:50:49;;;;;;;16.20;7.70;;;;;;;;;;5013203;28;20034;-76
2022/11/28 05:53:16;;;;;;;9.73;6.68;;;;;;;;;;4996170;28;20065;-76
2022/11/28 05:55:42;;;;;;;11.73;7.47;;;;;;;;;;4995354;28;20026;-76
2022/11/28 05:58:08;;;;;;;9.95;6.45;;;;;;;;;;5012962;28;20017;-76
2022/11/28 06:00:34;;;;;;;13.82;7.70;;;;;;;;;;5013007;28;20022;-76
2022/11/28 06:03:00;;;;;;;13.90;7.53;;;;;;;;;;5012815;28;20468;-76
2022/11/28 06:05:26;;;;;;;9.88;6.47;;;;;;;;;;5018793;28;20037;-76
2022/11/28 06:07:52;;;;;;;12.40;7.97;;;;;;;;;;5032859;28;20029;-76
2022/11/28 06:10:21;;;;;;;11.52;7.95;;;;;;;;;;5032638;28;20533;-76
2022/11/28 06:12:47;;;;;;;11.73;8.00;;;;;;;;;;5032386;28;20041;-76
2022/11/28 06:15:13;;;;;;;10.93;7.30;;;;;;;;;;5032493;28;20499;-76
2022/11/28 06:17:39;;;;;;;13.43;8.43;;;;;;;;;;5032413;28;20424;-76
2022/11/28 06:20:06;;;;;;;11.48;6.93;;;;;;;;;;4998332;28;20022;-76
2022/11/28 06:22:32;;;;;;;12.32;8.38;;;;;;;;;;5014872;28;20024;-77
2022/11/28 06:24:58;;;;;;;12.88;8.02;;;;;;;;;;5032535;28;20025;-75
2022/11/28 06:27:24;;;;;;;11.18;7.65;;;;;;;;;;5028474;28;20041;-76
2022/11/28 06:29:51;;;;;;;13.40;7.93;;;;;;;;;;5017770;28;20142;-76
2022/11/28 06:32:17;;;;;;;12.40;7.60;;;;;;;;;;5025284;28;20038;-76
2022/11/28 06:34:43;;;;;;;11.45;7.80;;;;;;;;;;5022202;28;20041;-76
2022/11/28 06:37:09;;;;;;;12.25;7.95;;;;;;;;;;5031462;28;20487;-76
2022/11/28 06:39:35;;;;;;;12.80;7.80;;;;;;;;;;5021229;28;20038;-76
2022/11/28 06:42:01;;;;;;;12.23;8.35;;;;;;;;;;5026756;28;20025;-77
2022/11/28 06:44:27;;;;;;;17.75;9.63;;;;;;;;;;5032170;28;20026;-76
2022/11/28 06:46:54;;;;;;;13.93;9.00;;;;;;;;;;5020251;28;20049;-76
2022/11/28 06:49:20;;;;;;;12.38;8.93;;;;;;;;;;5024152;28;20037;-76
2022/11/28 06:51:46;;;;;;;12.30;8.73;;;;;;;;;;5038963;28;20029;-77
2022/11/28 06:54:12;;;;;;;13.73;9.13;;;;;;;;;;5039133;28;20092;-79
2022/11/28 06:56:39;;;;;;;13.20;8.73;;;;;;;;;;5036071;28;20030;-77
2022/11/28 06:59:05;;;;;;;20.35;9.57;;;;;;;;;;5030161;28;20022;-76
2022/11/28 07:01:33;;;;;;;14.25;9.35;;;;;;;;;;5039004;28;20025;-79
2022/11/28 07:03:59;;;;;;;16.48;9.70;;;;;;;;;;5038901;28;20024;-79
2022/11/28 07:06:26;;;;;;;16.85;10.23;;;;;;;;;;5039002;28;20510;-79
2022/11/28 07:08:52;;;;;;;14.90;9.38;;;;;;;;;;5038966;28;20033;-78
2022/11/28 07:11:26;;;;;;;16.13;9.90;;;;;;;;;;5039207;28;20442;-78
2022/11/28 07:13:53;;;;;;;16.45;9.73;;;;;;;;;;5021190;28;20045;-78
2022/11/28 07:16:21;;;;;;;17.08;10.38;;;;;;;;;;5038968;28;20033;-77
2022/11/28 07:18:47;;;;;;;14.95;9.32;;;;;;;;;;5037514;28;20112;-76
2022/11/28 07:21:14;;;;;;;17.20;10.10;;;;;;;;;;5039358;28;20022;-76
2022/11/28 07:23:40;;;;;;;16.30;10.32;;;;;;;;;;5038585;28;20051;-81
2022/11/28 07:26:06;;;;;;;16.17;10.30;;;;;;;;;;5038080;28;20033;-77
2022/11/28 07:28:33;;;;;;;15.80;10.70;;;;;;;;;;5038033;28;20471;-76
2022/11/28 07:31:09;;;;;;;17.73;10.60;;;;;;;;;;5041016;28;20033;-77
2022/11/28 07:33:35;;;;;;;16.75;9.50;;;;;;;;;;5042136;28;20026;-76
2022/11/28 07:36:02;;;;;;;14.88;9.73;;;;;;;;;;5046804;28;20034;-77
2022/11/28 07:38:28;;;;;;;19.48;10.63;;;;;;;;;;5031471;28;20033;-76
2022/11/28 07:40:54;;;;;;;17.70;10.50;;;;;;;;;;5049817;28;20029;-77
2022/11/28 07:43:20;;;;;;;19.45;11.40;;;;;;;;;;5019564;28;20034;-77
2022/11/28 07:45:46;;;;;;;19.25;11.23;;;;;;;;;;5019658;28;20064;-77
2022/11/28 07:48:13;;;;;;;16.75;10.65;;;;;;;;;;5035872;28;20029;-76
2022/11/28 07:50:39;;;;;;;18.67;10.45;;;;;;;;;;5022853;28;20100;-76
2022/11/28 07:53:05;;;;;;;19.08;11.13;;;;;;;;;;5012448;28;20454;-76
2022/11/28 07:55:33;;;;;;;17.77;11.50;;;;;;;;;;5006262;28;20030;-76
2022/11/28 07:57:59;;;;;;;20.33;11.68;;;;;;;;;;5023420;28;20030;-76
2022/11/28 08:00:25;;;;;;;21.65;11.80;;;;;;;;;;5020565;28;20026;-76
2022/11/28 08:02:51;;;;;;;20.23;11.60;;;;;;;;;;5024037;28;20030;-76
2022/11/28 08:05:18;;;;;;;20.08;12.55;;;;;;;;;;5029604;28;20033;-76
2022/11/28 08:07:44;;;;;;;18.58;11.77;;;;;;;;;;5034463;28;20021;-77
2022/11/28 08:10:10;;;;;;;21.38;12.70;;;;;;;;;;5034258;28;20096;-76
2022/11/28 08:12:36;;;;;;;22.30;12.35;;;;;;;;;;5001509;28;20057;-77
2022/11/28 08:15:02;;;;;;;22.67;11.73;;;;;;;;;;4997013;28;20121;-76
2022/11/28 08:17:28;;;;;;;21.20;11.98;;;;;;;;;;5014582;28;20033;-76
2022/11/28 08:19:54;;;;;;;21.33;11.27;;;;;;;;;;5014643;28;20030;-76
2022/11/28 08:22:20;;;;;;;21.27;11.85;;;;;;;;;;5022249;28;20037;-76
2022/11/28 08:24:46;;;;;;;21.38;11.95;;;;;;;;;;5034065;28;20036;-77
2022/11/28 08:27:12;;;;;;;18.20;11.82;;;;;;;;;;5016870;28;20028;-79
2022/11/28 08:29:38;;;;;;;21.67;12.55;;;;;;;;;;5034915;28;20026;-80
2022/11/28 08:32:04;;;;;;;16.90;10.68;;;;;;;;;;5035133;28;20021;-79
2022/11/28 08:34:30;;;;;;;20.10;12.18;;;;;;;;;;5035065;28;20034;-79
2022/11/28 08:36:56;;;;;;;22.38;13.00;;;;;;;;;;5017015;28;20029;-79
2022/11/28 08:39:22;;;;;;;19.42;12.07;;;;;;;;;;5017316;28;20037;-79
2022/11/28 08:41:48;;;;;;;20.88;12.02;;;;;;;;;;5034758;28;20785;-79
2022/11/28 08:44:15;;;;;;;19.73;11.55;;;;;;;;;;5034656;28;20100;-79
2022/11/28 08:46:41;;;;;;;25.52;13.15;;;;;;;;;;5016961;28;20033;-79
2022/11/28 08:49:07;;;;;;;21.65;12.18;;;;;;;;;;5034634;28;20025;-79
2022/11/28 08:51:33;;;;;;;25.00;12.20;;;;;;;;;;5017170;28;20030;-79
2022/11/28 08:53:59;;;;;;;19.73;11.07;;;;;;;;;;5017059;28;20029;-79
2022/11/28 08:56:25;;;;;;;21.75;12.27;;;;;;;;;;5034647;28;20529;-79
2022/11/28 08:58:51;;;;;;;20.88;12.02;;;;;;;;;;5034598;28;20033;-79
2022/11/28 09:01:18;;;;;;;18.27;10.48;;;;;;;;;;5034559;28;20383;-79
2022/11/28 09:03:45;;;;;;;16.70;10.73;;;;;;;;;;5034524;28;20022;-79
2022/11/28 09:06:11;;;;;;;21.58;11.57;;;;;;;;;;5016197;28;20120;-79
2022/11/28 09:08:37;;;;;;;18.33;11.75;;;;;;;;;;5034357;28;20518;-79
2022/11/28 09:11:06;;;;;;;17.83;11.35;;;;;;;;;;5034096;28;20072;-79
2022/11/28 09:13:32;;;;;;;20.65;11.80;;;;;;;;;;5034169;28;20021;-79
2022/11/28 09:15:58;;;;;;;22.25;12.25;;;;;;;;;;5039619;28;20083;-77
2022/11/28 09:18:25;;;;;;;18.42;11.55;;;;;;;;;;5035412;28;20036;-77
2022/11/28 09:20:56;;;;;;;18.30;10.68;;;;;;;;;;5033322;28;20120;-77
2022/11/28 09:23:22;;;;;;;21.20;11.85;;;;;;;;;;5033231;28;20352;-77
2022/11/28 09:25:48;;;;;;;17.58;10.90;;;;;;;;;;5033232;28;20080;-77
2022/11/28 09:28:14;;;;;;;22.73;11.73;;;;;;;;;;5027785;28;20064;-77
2022/11/28 09:30:40;;;;;;;23.20;13.05;;;;;;;;;;5011871;28;20033;-76
2022/11/28 09:33:06;;;;;;;20.30;12.48;;;;;;;;;;5032688;28;20024;-77
2022/11/28 09:35:32;;;;;;;21.58;12.80;;;;;;;;;;5032764;28;20118;-77
2022/11/28 09:37:58;;;;;;;15.30;10.82;;;;;;;;;;5032895;28;20440;-77
2022/11/28 09:40:28;;;;;;;17.75;10.80;;;;;;;;;;5014981;28;20123;-77
2022/11/28 09:42:55;;;;;;;20.98;11.60;;;;;;;;;;5032996;28;20013;-77
2022/11/28 09:45:23;;;;;;;17.40;10.25;;;;;;;;;;5032744;28;20471;-76
2022/11/28 09:47:51;;;;;;;20.73;11.05;;;;;;;;;;5032627;28;20471;-77
2022/11/28 09:50:30;;;;;;;17.02;10.25;;;;;;;;;;5032711;28;20357;-77
2022/11/28 09:53:00;;;;;;;18.77;10.80;;;;;;;;;;5032726;28;20021;-77
2022/11/28 09:55:39;;;;;;;18.23;10.57;;;;;;;;;;5032549;28;20407;-77
2022/11/28 09:58:11;;;;;;;18.48;11.10;;;;;;;;;;5032387;28;20385;-77
2022/11/28 10:00:39;;;;;;;22.80;11.60;;;;;;;;;;5032874;28;20026;-77
2022/11/28 10:03:38;;;;;;;19.13;11.35;;;;;;;;;;5035313;28;20033;-77
2022/11/28 10:06:12;;;;;;;22.40;10.80;;;;;;;;;;4991649;28;20444;-81
2022/11/28 10:08:41;;;;;;;22.83;11.68;;;;;;;;;;5019078;28;20475;-80
2022/11/28 10:11:07;;;;;;;25.27;12.35;;;;;;;;;;5020960;28;20045;-80
2022/11/28 10:13:39;;;;;;;23.52;13.07;;;;;;;;;;5033129;28;20021;-80
2022/11/28 10:16:11;;;;;;;20.67;11.30;;;;;;;;;;5033050;28;20482;-80
2022/11/28 10:18:37;;;;;;;;;;;;;;;;;;5013423;28;20080;-79
2022/11/28 10:21:09;;;;;;;28.60;13.25;;;;;;;;;;5013210;28;20275;-81
2022/11/28 10:23:41;;;;;;;29.55;13.13;;;;;;;;;;5013284;28;20041;-80
2022/11/28 10:26:08;;;;;;;29.98;14.48;;;;;;;;;;5013185;28;20037;-81
2022/11/28 10:28:37;;;;;;;29.95;13.68;;;;;;;;;;5018243;28;20112;-80
2022/11/28 10:31:22;;;;;;;35.47;14.90;;;;;;;;;;5002288;28;20345;-81
2022/11/28 10:34:11;;;;;;;32.28;14.60;;;;;;;;;;5014530;28;20520;-80
2022/11/28 10:36:56;;;;;;;29.77;14.10;;;;;;;;;;4978645;28;20075;-79
2022/11/28 10:39:22;;;;;;;33.47;14.68;;;;;;;;;;5030564;28;20033;-81
2022/11/28 10:42:13;;;;;;;33.13;15.43;;;;;;;;;;5045255;28;20371;-80
2022/11/28 10:44:42;;;;;;;41.85;15.98;;;;;;;;;;5016182;28;20033;-80
2022/11/28 10:47:17;;;;;;;40.42;15.88;;;;;;;;;;5021862;28;20026;-80
2022/11/28 10:49:43;;;;;;;48.28;16.77;;;;;;;;;;5012913;28;20065;-79
2022/11/28 10:52:20;;;;;;;44.47;16.15;;;;;;;;;;5013117;28;20018;-80
2022/11/28 10:55:00;;;;;;;50.08;17.15;;;;;;;;;;4995419;28;20464;-80
2022/11/28 10:57:38;;;;;;;43.40;16.67;;;;;;;;;;5013075;28;20026;-80
2022/11/28 11:00:11;;;;;;;42.08;17.35;;;;;;;;;;5012792;28;20038;-80
2022/11/28 11:02:40;;;;;;;36.45;15.32;;;;;;;;;;5012883;28;20018;-80
2022/11/28 11:05:11;;;;;;;46.08;17.38;;;;;;;;;;5015861;28;20026;-80
2022/11/28 11:07:37;;;;;;;43.40;16.40;;;;;;;;;;5032530;28;20045;-80
2022/11/28 11:10:22;;;;;;;50.03;17.70;;;;;;;;;;5015006;28;20029;-80
2022/11/28 11:12:52;;;;;;;45.38;17.20;;;;;;;;;;5014423;28;20376;-79
2022/11/28 11:15:23;;;;;;;35.40;16.38;;;;;;;;;;5025919;28;20022;-80
2022/11/28 11:17:50;;;;;;;50.50;16.50;;;;;;;;;;5030589;28;20060;-80
2022/11/28 11:20:22;;;;;;;43.03;15.95;;;;;;;;;;5014629;28;20072;-80
2022/11/28 11:22:55;;;;;;;43.13;17.05;;;;;;;;;;5028700;28;20018;-79
2022/11/28 11:25:22;;;;;;;45.13;16.83;;;;;;;;;;5011639;28;20032;-79
2022/11/28 11:27:52;;;;;;;50.85;17.45;;;;;;;;;;5022237;28;20479;-80
2022/11/28 11:30:29;;;;;;;42.28;17.35;;;;;;;;;;5018236;28;20087;-80
2022/11/28 11:32:56;;;;;;;55.60;18.02;;;;;;;;;;5036034;28;20032;-80
2022/11/28 11:35:27;;;;;;;40.70;16.45;;;;;;;;;;5035645;28;20025;-80
2022/11/28 11:37:53;;;;;;;46.83;17.92;;;;;;;;;;5029748;28;20022;-80
2022/11/28 11:40:22;;;;;;;41.40;16.63;;;;;;;;;;5010440;28;20119;-80
2022/11/28 11:42:56;;;;;;;45.13;17.77;;;;;;;;;;5039455;28;20021;-80
2022/11/28 11:45:28;;;;;;;47.10;17.98;;;;;;;;;;5023452;28;20026;-80
2022/11/28 11:47:54;;;;;;;44.40;16.80;;;;;;;;;;5036707;28;20021;-80
2022/11/28 11:50:22;;;;;;;37.15;16.60;;;;;;;;;;5031952;28;20449;-80
2022/11/28 11:53:14;;;;;;;47.47;17.65;;;;;;;;;;5035732;28;20040;-80
2022/11/28 11:55:51;;;;;;;45.55;17.25;;;;;;;;;;5033113;28;20049;-80
2022/11/28 11:58:19;;;;;;;47.35;17.50;;;;;;;;;;5024735;28;20053;-80
2022/11/28 12:00:46;;;;;;;42.88;18.15;;;;;;;;;;5023171;28;20029;-80
2022/11/28 12:03:16;;;;;;;40.47;17.85;;;;;;;;;;5025738;28;20033;-80
2022/11/28 12:05:53;;;;;;;40.08;16.30;;;;;;;;;;5029660;28;20030;-80
2022/11/28 12:08:36;;;;;;;42.35;16.80;;;;;;;;;;5021937;28;20026;-80
2022/11/28 12:11:09;;;;;;;48.50;16.85;;;;;;;;;;5027770;28;20548;-79
2022/11/28 12:13:35;;;;;;;45.53;17.70;;;;;;;;;;5004026;28;20030;-79
2022/11/28 12:16:01;;;;;;;43.80;16.67;;;;;;;;;;5033414;28;20040;-79
2022/11/28 12:18:33;;;;;;;40.92;16.67;;;;;;;;;;5036482;28;20025;-80
2022/11/28 12:20:59;;;;;;;;;;;;;;;;;;5036686;28;20440;-79
2022/11/28 12:23:51;;;;;;;44.70;17.58;;;;;;;;;;5036535;28;19944;-80
2022/11/28 12:26:33;;;;;;;47.47;17.55;;;;;;;;;;5032209;28;20395;-80
2022/11/28 12:29:05;;;;;;;47.10;17.42;;;;;;;;;;5030307;28;20491;-80
2022/11/28 12:31:31;;;;;;;;;;;;;;;;;;5015276;28;20033;-79
2022/11/28 12:34:10;;;;;;;48.75;19.00;;;;;;;;;;5015960;28;19906;-80
2022/11/28 12:36:37;;;;;;;50.58;18.48;;;;;;;;;;5015974;28;20022;-80
2022/11/28 12:39:14;;;;;;;46.90;18.75;;;;;;;;;;5016736;28;20108;-80
2022/11/28 12:41:55;;;;;;;50.80;19.10;;;;;;;;;;5015046;28;20029;-80
2022/11/28 12:44:40;;;;;;;52.83;20.40;;;;;;;;;;4998514;28;20026;-80
2022/11/28 12:47:14;;;;;;;52.75;20.27;;;;;;;;;;5035702;28;20101;-80
2022/11/28 12:49:52;;;;;;;52.03;19.50;;;;;;;;;;5035508;28;20025;-80
2022/11/28 12:52:32;;;;;;;48.42;19.83;;;;;;;;;;5034908;28;20123;-80
2022/11/28 12:55:11;;;;;;;53.28;20.02;;;;;;;;;;5034862;28;20470;-80
2022/11/28 12:57:47;;;;;;;47.00;19.00;;;;;;;;;;5026865;28;20109;-81
2022/11/28 13:00:20;;;;;;;41.08;17.17;;;;;;;;;;5009413;28;20036;-80
2022/11/28 13:03:05;;;;;;;55.03;20.55;;;;;;;;;;5016532;28;20025;-79
2022/11/28 13:05:37;;;;;;;43.65;18.45;;;;;;;;;;5034382;28;20096;-80
2022/11/28 13:11:13;;;;;;;52.22;20.20;;;;;;;;;;5033788;28;20095;-80
2022/11/28 13:13:40;;;;;;;;;;;;;;;;;;5034515;28;20026;-80
2022/11/28 13:16:06;;;;;;;51.00;19.15;;;;;;;;;;5051172;28;19912;-79
2022/11/28 13:18:32;;;;;;;60.08;21.30;;;;;;;;;;5020233;28;20440;-80
2022/11/28 13:21:10;;;;;;;55.78;20.63;;;;;;;;;;5013981;28;20026;-80
2022/11/28 13:23:42;;;;;;;55.95;20.58;;;;;;;;;;5004908;28;20415;-80
2022/11/28 13:26:18;;;;;;;59.60;20.85;;;;;;;;;;5033719;28;20024;-80
2022/11/28 13:28:50;;;;;;;49.03;20.08;;;;;;;;;;5026843;28;20105;-80
2022/11/28 13:31:23;;;;;;;55.42;21.80;;;;;;;;;;5016788;28;20033;-80
2022/11/28 13:33:51;;;;;;;52.60;21.40;;;;;;;;;;5014095;28;20030;-80
2022/11/28 13:36:36;;;;;;;55.80;22.45;;;;;;;;;;4996756;28;20083;-80
2022/11/28 13:39:17;;;;;;;68.15;24.70;;;;;;;;;;5014179;28;20029;-80
2022/11/28 13:41:49;;;;;;;72.80;23.58;;;;;;;;;;5012902;28;20033;-76
2022/11/28 13:44:23;;;;;;;73.78;23.10;;;;;;;;;;4995915;28;20022;-78
2022/11/28 13:46:49;;;;;;;75.95;24.10;;;;;;;;;;5030854;28;20475;-76
2022/11/28 13:49:26;;;;;;;56.63;21.73;;;;;;;;;;5032094;28;20124;-76
2022/11/28 13:52:11;;;;;;;62.45;23.13;;;;;;;;;;5031441;28;20053;-76
2022/11/28 13:54:42;;;;;;;64.35;21.98;;;;;;;;;;5032200;28;20060;-76
2022/11/28 13:57:15;;;;;;;59.63;22.73;;;;;;;;;;5032152;28;20562;-76
2022/11/28 13:59:46;;;;;;;72.78;24.95;;;;;;;;;;5031959;28;20021;-76
2022/11/28 14:02:21;;;;;;;71.55;23.40;;;;;;;;;;5023463;28;20037;-77
2022/11/28 14:04:47;;;;;;;67.15;24.02;;;;;;;;;;5012734;28;20026;-77
2022/11/28 14:07:20;;;;;;;68.72;24.65;;;;;;;;;;5031947;28;20050;-76
2022/11/28 14:09:46;;;;;;;76.93;25.52;;;;;;;;;;5029716;28;20518;-77
2022/11/28 14:12:13;;;;;;;72.60;25.40;;;;;;;;;;5028073;28;20077;-76
2022/11/28 14:14:45;;;;;;;71.40;24.88;;;;;;;;;;5031926;28;20025;-76
2022/11/28 14:17:29;;;;;;;77.60;25.30;;;;;;;;;;5021250;28;20034;-76
2022/11/28 14:20:15;;;;;;;74.53;25.52;;;;;;;;;;5011986;28;20038;-76
2022/11/28 14:22:41;;;;;;;86.00;26.95;;;;;;;;;;5023769;28;20025;-76
2022/11/28 14:25:16;;;;;;;94.68;27.88;;;;;;;;;;5031641;28;20100;-76
2022/11/28 14:27:47;;;;;;;94.45;28.40;;;;;;;;;;5029991;28;20017;-75
2022/11/28 14:30:34;;;;;;;99.97;32.03;;;;;;;;;;5017984;28;20091;-76
2022/11/28 14:33:15;;;;;;;105.60;30.70;;;;;;;;;;5020241;28;20029;-76
2022/11/28 14:35:50;;;;;;;104.38;31.33;;;;;;;;;;5030797;28;20060;-76
2022/11/28 14:38:26;;;;;;;117.80;35.03;;;;;;;;;;5021375;28;20061;-76
2022/11/28 14:40:55;;;;;;;115.45;33.17;;;;;;;;;;5022159;28;20030;-76
2022/11/28 14:43:27;;;;;;;98.28;30.00;;;;;;;;;;5021379;28;20022;-76
2022/11/28 14:46:12;;;;;;;98.53;29.52;;;;;;;;;;5009336;28;20022;-76